Time;durP1;ratioP1;P1;durP2;ratioP2;P2;SDS_P1;SDS_P2;PMS_P1;PMS_P2;Temp;Humidity;BMP_temperature;BMP_pressure;BME280_temperature;BME280_humidity;BME280_pressure;Samples;Min_cycle;Max_cycle;Signal;HPM_P1;HPM_P2
2022/10/01 00:01:13;;;;;;;11.90;8.52;;;11.90;99.90;;;;;;5052512;28;20126;-57
2022/10/01 00:03:40;;;;;;;11.32;8.18;;;11.90;99.90;;;;;;5057884;28;20087;-57
2022/10/01 00:06:08;;;;;;;16.48;9.00;;;11.90;99.90;;;;;;5052416;28;20045;-55
2022/10/01 00:08:36;;;;;;;11.32;9.23;;;11.90;99.90;;;;;;5054626;28;20084;-57
2022/10/01 00:11:07;;;;;;;11.88;8.52;;;11.80;99.90;;;;;;5060596;28;20056;-56
2022/10/01 00:13:34;;;;;;;11.63;8.15;;;11.80;99.90;;;;;;5051836;28;20045;-55
2022/10/01 00:16:06;;;;;;;12.20;9.07;;;11.80;99.90;;;;;;5051876;28;20056;-56
2022/10/01 00:18:35;;;;;;;13.65;9.70;;;11.80;99.90;;;;;;5053001;28;20061;-57
2022/10/01 00:21:06;;;;;;;11.73;9.63;;;11.70;99.90;;;;;;5052486;28;20041;-52
2022/10/01 00:23:32;;;;;;;12.93;9.52;;;11.70;99.90;;;;;;5050271;28;20076;-55
2022/10/01 00:26:08;;;;;;;10.63;9.52;;;11.70;99.90;;;;;;5051223;28;20085;-52
2022/10/01 00:28:35;;;;;;;13.27;10.02;;;11.70;99.90;;;;;;5054516;28;20098;-56
2022/10/01 00:31:02;;;;;;;17.77;10.00;;;11.70;99.90;;;;;;5056926;28;20045;-49
2022/10/01 00:33:31;;;;;;;14.98;10.10;;;11.70;99.90;;;;;;5050112;28;20078;-55
2022/10/01 00:35:58;;;;;;;12.60;10.13;;;11.70;99.90;;;;;;5044603;28;20045;-54
2022/10/01 00:38:25;;;;;;;15.00;9.73;;;11.70;99.90;;;;;;5051080;28;20562;-56
2022/10/01 00:40:52;;;;;;;12.82;9.38;;;11.60;99.90;;;;;;5052095;28;20057;-56
2022/10/01 00:43:22;;;;;;;15.63;9.93;;;11.60;99.90;;;;;;5053318;28;20045;-55
2022/10/01 00:45:49;;;;;;;11.43;9.75;;;11.70;99.90;;;;;;5049744;28;20056;-50
2022/10/01 00:48:16;;;;;;;12.75;9.82;;;11.60;99.90;;;;;;5056796;28;20431;-53
2022/10/01 00:50:44;;;;;;;11.30;9.88;;;11.60;99.90;;;;;;5053600;28;20083;-55
2022/10/01 00:53:11;;;;;;;12.77;10.13;;;11.60;99.90;;;;;;5049987;28;20075;-55
2022/10/01 00:55:40;;;;;;;13.60;9.88;;;11.60;99.90;;;;;;5049687;28;20486;-54
2022/10/01 00:58:07;;;;;;;12.95;10.07;;;11.50;99.90;;;;;;5036362;28;20476;-52
2022/10/01 01:00:34;;;;;;;14.27;10.10;;;11.50;99.90;;;;;;5050807;28;20053;-56
2022/10/01 01:03:00;;;;;;;11.88;9.45;;;11.50;99.90;;;;;;5051982;28;20048;-46
2022/10/01 01:05:27;;;;;;;13.32;9.98;;;11.50;99.90;;;;;;5053724;28;20040;-53
2022/10/01 01:07:57;;;;;;;12.48;9.32;;;11.50;99.90;;;;;;5055467;28;20543;-51
2022/10/01 01:10:28;;;;;;;15.93;9.93;;;11.50;99.90;;;;;;5050638;28;20049;-51
2022/10/01 01:13:03;;;;;;;14.80;10.25;;;11.40;99.90;;;;;;5051919;28;20063;-48
2022/10/01 01:15:33;;;;;;;13.18;10.38;;;11.50;99.90;;;;;;5050165;28;20135;-53
2022/10/01 01:18:02;;;;;;;11.75;9.90;;;11.40;99.90;;;;;;5051501;28;20130;-53
2022/10/01 01:20:59;;;;;;;11.50;10.27;;;11.40;99.90;;;;;;5049298;28;20076;-52
2022/10/01 01:23:45;;;;;;;15.60;10.98;;;11.40;99.90;;;;;;5046998;28;20053;-50
2022/10/01 01:26:17;;;;;;;12.38;10.43;;;11.40;99.90;;;;;;5050089;28;20068;-54
2022/10/01 01:28:47;;;;;;;15.73;10.60;;;11.40;99.90;;;;;;5051047;28;20045;-52
2022/10/01 01:31:16;;;;;;;12.60;9.30;;;11.40;99.90;;;;;;5048800;28;20095;-53
2022/10/01 01:33:43;;;;;;;13.25;10.13;;;11.40;99.90;;;;;;5049848;28;20140;-54
2022/10/01 01:36:15;;;;;;;16.13;9.52;;;11.40;99.90;;;;;;5049787;28;20044;-49
2022/10/01 01:38:44;;;;;;;16.45;10.40;;;11.40;99.90;;;;;;5042252;28;20612;-55
2022/10/01 01:41:11;;;;;;;12.55;9.68;;;11.40;99.90;;;;;;5049424;28;20140;-54
2022/10/01 01:43:39;;;;;;;13.60;9.98;;;11.30;99.90;;;;;;5050994;28;20056;-54
2022/10/01 01:46:08;;;;;;;12.35;10.63;;;11.30;99.90;;;;;;5050121;28;20126;-51
2022/10/01 01:48:35;;;;;;;12.73;9.88;;;11.30;99.90;;;;;;5051307;28;20053;-53
2022/10/01 01:51:04;;;;;;;11.45;9.13;;;11.40;99.90;;;;;;5040903;28;20053;-50
2022/10/01 01:53:31;;;;;;;12.27;10.20;;;11.30;99.90;;;;;;5050617;28;20072;-51
2022/10/01 01:55:59;;;;;;;12.88;9.98;;;11.30;99.90;;;;;;5047202;28;20473;-50
2022/10/01 01:58:27;;;;;;;11.90;9.32;;;11.30;99.90;;;;;;5051363;28;20045;-50
2022/10/01 02:00:53;;;;;;;11.43;9.32;;;11.30;99.90;;;;;;5053029;28;20106;-50
2022/10/01 02:03:22;;;;;;;9.75;8.75;;;11.30;99.90;;;;;;5046953;28;20113;-48
2022/10/01 02:05:53;;;;;;;11.63;8.98;;;11.30;99.90;;;;;;5051569;28;20076;-53
2022/10/01 02:08:26;;;;;;;14.45;9.38;;;11.30;99.90;;;;;;5051084;28;20050;-53
2022/10/01 02:11:02;;;;;;;11.60;10.07;;;11.30;99.90;;;;;;5049837;28;20481;-52
2022/10/01 02:13:37;;;;;;;14.98;9.80;;;11.30;99.90;;;;;;5048158;28;20044;-53
2022/10/01 02:16:08;;;;;;;12.45;9.63;;;11.30;99.90;;;;;;5050574;28;20128;-52
2022/10/01 02:18:39;;;;;;;15.37;9.63;;;11.30;99.90;;;;;;5051997;28;20122;-51
2022/10/01 02:21:10;;;;;;;12.63;9.52;;;11.30;99.90;;;;;;5055014;28;20079;-40
2022/10/01 02:23:40;;;;;;;14.32;9.20;;;11.30;99.90;;;;;;5042649;28;20385;-51
2022/10/01 02:26:08;;;;;;;9.95;8.90;;;11.30;99.90;;;;;;5050712;28;20580;-53
2022/10/01 02:28:35;;;;;;;9.10;8.18;;;11.30;99.90;;;;;;5050849;28;20504;-48
2022/10/01 02:31:01;;;;;;;11.15;8.45;;;11.30;99.90;;;;;;5051005;28;20111;-52
2022/10/01 02:33:30;;;;;;;12.32;8.52;;;11.30;99.90;;;;;;5049151;28;20130;-54
2022/10/01 02:35:58;;;;;;;10.02;8.13;;;11.30;99.90;;;;;;5050664;28;20049;-56
2022/10/01 02:38:25;;;;;;;9.85;8.13;;;11.30;99.90;;;;;;5049601;28;20103;-54
2022/10/01 02:40:53;;;;;;;9.38;7.43;;;11.40;99.90;;;;;;5055726;28;20576;-52
2022/10/01 02:43:22;;;;;;;9.25;6.80;;;11.30;99.90;;;;;;5057870;28;20097;-53
2022/10/01 02:45:50;;;;;;;10.35;7.10;;;11.30;99.90;;;;;;5053409;28;20132;-53
2022/10/01 02:48:17;;;;;;;8.98;7.25;;;11.30;99.90;;;;;;5055282;28;20409;-49
2022/10/01 02:50:46;;;;;;;9.38;7.05;;;11.40;99.90;;;;;;5052132;28;20055;-53
2022/10/01 02:53:18;;;;;;;7.13;6.30;;;11.40;99.90;;;;;;5052807;28;20129;-51
2022/10/01 02:55:44;;;;;;;7.22;6.53;;;11.40;99.90;;;;;;5053426;28;20076;-51
2022/10/01 02:58:10;;;;;;;8.40;6.45;;;11.40;99.90;;;;;;5035359;28;20041;-48
2022/10/01 03:00:37;;;;;;;8.48;5.57;;;11.40;99.90;;;;;;5042378;28;20107;-52
2022/10/01 03:03:04;;;;;;;7.38;5.72;;;11.40;99.90;;;;;;5052746;28;20095;-48
2022/10/01 03:05:31;;;;;;;6.18;5.57;;;11.40;99.90;;;;;;5052683;28;20049;-51
2022/10/01 03:07:58;;;;;;;7.35;5.95;;;11.40;99.90;;;;;;5054124;28;20049;-50
2022/10/01 03:10:26;;;;;;;5.97;5.20;;;11.40;99.90;;;;;;5060949;28;20040;-46
2022/10/01 03:12:52;;;;;;;6.40;5.75;;;11.50;99.90;;;;;;5050420;28;20148;-42
2022/10/01 03:15:19;;;;;;;6.35;5.10;;;11.40;99.90;;;;;;5052382;28;20064;-44
2022/10/01 03:17:46;;;;;;;7.25;5.75;;;11.40;99.90;;;;;;5036392;28;20550;-49
2022/10/01 03:20:13;;;;;;;5.53;4.90;;;11.40;99.90;;;;;;5053422;28;20133;-52
2022/10/01 03:22:40;;;;;;;6.30;5.35;;;11.50;99.90;;;;;;5052190;28;20080;-56
2022/10/01 03:25:07;;;;;;;5.15;4.28;;;11.40;99.90;;;;;;5054484;28;20072;-53
2022/10/01 03:27:35;;;;;;;5.60;5.00;;;11.40;99.90;;;;;;5052223;28;20037;-56
2022/10/01 03:30:02;;;;;;;6.85;5.28;;;11.40;99.90;;;;;;5054264;28;20103;-53
2022/10/01 03:32:29;;;;;;;6.72;4.32;;;11.50;99.90;;;;;;5053646;28;20084;-56
2022/10/01 03:34:56;;;;;;;4.47;4.07;;;11.40;99.90;;;;;;5053605;28;20390;-51
2022/10/01 03:37:22;;;;;;;4.90;4.10;;;11.50;99.90;;;;;;5065336;28;20095;-52
2022/10/01 03:39:49;;;;;;;5.28;4.15;;;11.50;99.90;;;;;;5074587;28;20118;-54
2022/10/01 03:42:16;;;;;;;6.65;3.95;;;11.50;99.90;;;;;;5058329;28;20076;-55
2022/10/01 03:44:44;;;;;;;3.70;3.40;;;11.50;99.90;;;;;;5053299;28;20405;-55
2022/10/01 03:47:11;;;;;;;6.78;3.60;;;11.50;99.90;;;;;;5053761;28;20106;-54
2022/10/01 03:49:38;;;;;;;6.80;3.90;;;11.50;99.90;;;;;;5058201;28;20045;-55
2022/10/01 03:52:05;;;;;;;5.90;3.50;;;11.50;99.90;;;;;;5050780;28;20079;-52
2022/10/01 03:54:32;;;;;;;3.88;3.58;;;11.40;99.90;;;;;;5052229;28;20053;-50
2022/10/01 03:56:59;;;;;;;7.30;3.83;;;11.50;99.90;;;;;;5047390;28;20084;-47
2022/10/01 03:59:26;;;;;;;4.75;3.40;;;11.40;99.90;;;;;;5059958;28;20090;-51
2022/10/01 04:01:54;;;;;;;3.38;3.08;;;11.40;99.90;;;;;;5055080;28;20056;-50
2022/10/01 04:04:21;;;;;;;4.07;3.17;;;11.50;99.90;;;;;;5052819;28;20099;-46
2022/10/01 04:06:48;;;;;;;3.60;3.30;;;11.40;99.90;;;;;;5050002;28;20495;-52
2022/10/01 04:09:14;;;;;;;4.03;3.63;;;11.50;99.90;;;;;;5054022;28;20049;-50
2022/10/01 04:11:41;;;;;;;3.92;3.20;;;11.40;99.90;;;;;;5052519;28;20045;-48
2022/10/01 04:14:08;;;;;;;3.40;3.10;;;11.50;99.90;;;;;;5051935;28;20099;-49
2022/10/01 04:16:35;;;;;;;4.35;3.42;;;11.50;99.90;;;;;;5050296;28;20072;-50
2022/10/01 04:19:04;;;;;;;4.22;3.22;;;11.50;99.90;;;;;;5055659;28;20044;-53
2022/10/01 04:21:30;;;;;;;5.28;3.25;;;11.50;99.90;;;;;;5057362;28;20641;-53
2022/10/01 04:23:58;;;;;;;5.28;3.50;;;11.50;99.90;;;;;;5051199;28;20122;-50
2022/10/01 04:26:25;;;;;;;5.72;3.45;;;11.50;99.90;;;;;;5051569;28;20106;-50
2022/10/01 04:28:52;;;;;;;4.03;3.20;;;11.50;99.90;;;;;;5053596;28;20417;-54
2022/10/01 04:31:25;;;;;;;4.05;3.17;;;11.60;99.90;;;;;;5058247;28;20053;-53
2022/10/01 04:33:52;;;;;;;2.92;2.63;;;11.50;99.90;;;;;;5051031;28;20060;-52
2022/10/01 04:36:20;;;;;;;3.30;2.72;;;11.50;99.90;;;;;;5050225;28;20053;-54
2022/10/01 04:38:47;;;;;;;4.47;3.03;;;11.60;99.90;;;;;;5050657;28;20493;-52
2022/10/01 04:41:14;;;;;;;4.72;3.25;;;11.60;99.90;;;;;;5050891;28;20061;-50
2022/10/01 04:43:41;;;;;;;5.30;3.25;;;11.60;99.90;;;;;;5051673;28;20090;-50
2022/10/01 04:46:07;;;;;;;4.70;3.38;;;11.60;99.90;;;;;;5050772;28;20559;-50
2022/10/01 04:48:34;;;;;;;4.28;3.15;;;11.60;99.90;;;;;;5053032;28;20099;-50
2022/10/01 04:51:01;;;;;;;5.28;3.40;;;11.60;99.90;;;;;;5050481;28;20048;-49
2022/10/01 04:53:29;;;;;;;4.47;3.40;;;11.60;99.90;;;;;;5050532;28;20049;-50
2022/10/01 04:55:56;;;;;;;3.47;3.13;;;11.60;99.90;;;;;;5049558;28;20120;-47
2022/10/01 04:58:23;;;;;;;3.80;3.50;;;11.70;99.90;;;;;;5055173;28;20084;-51
2022/10/01 05:00:50;;;;;;;3.58;2.90;;;11.70;99.90;;;;;;5051285;28;20056;-51
2022/10/01 05:03:16;;;;;;;3.90;2.67;;;11.70;99.90;;;;;;5050822;28;20065;-47
2022/10/01 05:05:43;;;;;;;4.53;3.05;;;11.70;99.90;;;;;;5050602;28;20115;-45
2022/10/01 05:08:11;;;;;;;3.20;2.90;;;11.70;99.90;;;;;;5046236;28;20041;-49
2022/10/01 05:10:39;;;;;;;3.70;3.38;;;11.70;99.90;;;;;;5045583;28;20130;-47
2022/10/01 05:13:06;;;;;;;3.67;3.33;;;11.70;99.90;;;;;;5050882;28;20095;-48
2022/10/01 05:15:34;;;;;;;5.00;2.78;;;11.80;99.90;;;;;;5053797;28;20142;-50
2022/10/01 05:18:01;;;;;;;3.47;3.10;;;11.80;99.90;;;;;;5050779;28;20324;-51
2022/10/01 05:20:28;;;;;;;4.10;3.05;;;11.80;99.90;;;;;;5051191;28;20485;-48
2022/10/01 05:22:55;;;;;;;3.35;3.05;;;11.80;99.90;;;;;;5052068;28;20041;-47
2022/10/01 05:25:22;;;;;;;4.18;3.47;;;11.80;99.90;;;;;;5052566;28;20059;-48
2022/10/01 05:27:50;;;;;;;4.97;3.40;;;11.90;99.90;;;;;;5050131;28;20049;-45
2022/10/01 05:30:22;;;;;;;3.25;2.95;;;11.90;99.90;;;;;;5049013;28;20135;-47
2022/10/01 05:32:56;;;;;;;5.95;3.40;;;11.90;99.90;;;;;;5049765;28;20056;-47
2022/10/01 05:35:23;;;;;;;7.45;3.85;;;11.90;99.90;;;;;;5047787;28;20100;-45
2022/10/01 05:37:53;;;;;;;5.00;3.60;;;11.90;99.90;;;;;;5064658;28;20110;-48
2022/10/01 05:40:20;;;;;;;5.10;4.07;;;12.00;99.90;;;;;;5049141;28;20132;-48
2022/10/01 05:42:47;;;;;;;4.85;4.07;;;12.00;99.90;;;;;;5054384;28;20496;-50
2022/10/01 05:45:16;;;;;;;6.72;4.28;;;12.00;99.90;;;;;;5060731;28;20090;-50
2022/10/01 05:47:43;;;;;;;4.65;4.25;;;12.00;99.90;;;;;;5046918;28;20465;-45
2022/10/01 05:50:10;;;;;;;8.27;4.60;;;12.00;99.90;;;;;;5046594;28;20055;-44
2022/10/01 05:52:37;;;;;;;6.45;3.90;;;12.10;99.90;;;;;;5045132;28;20052;-45
2022/10/01 05:55:04;;;;;;;7.88;4.68;;;12.10;99.90;;;;;;5048576;28;20041;-44
2022/10/01 05:57:31;;;;;;;6.60;5.05;;;12.10;99.90;;;;;;5062280;28;20126;-50
2022/10/01 05:59:58;;;;;;;4.88;4.45;;;12.10;99.90;;;;;;5050592;28;20060;-50
2022/10/01 06:02:27;;;;;;;6.13;4.50;;;12.20;99.90;;;;;;5050189;28;20060;-48
2022/10/01 06:04:53;;;;;;;8.15;5.03;;;12.20;99.90;;;;;;5051257;28;20194;-50
2022/10/01 06:07:20;;;;;;;8.73;4.68;;;12.20;99.90;;;;;;5050439;28;20443;-51
2022/10/01 06:09:47;;;;;;;7.20;4.72;;;12.20;99.90;;;;;;5049795;28;20108;-45
2022/10/01 06:12:15;;;;;;;6.53;4.88;;;12.30;99.90;;;;;;5049753;28;20394;-44
2022/10/01 06:14:42;;;;;;;8.30;6.05;;;12.30;99.90;;;;;;5050656;28;20068;-50
2022/10/01 06:17:09;;;;;;;10.00;6.22;;;12.30;99.90;;;;;;5052878;28;20574;-52
2022/10/01 06:19:37;;;;;;;10.95;5.95;;;12.30;99.90;;;;;;5057376;28;20622;-49
2022/10/01 06:22:04;;;;;;;7.55;5.50;;;12.40;99.90;;;;;;5062628;28;20048;-51
2022/10/01 06:24:31;;;;;;;9.90;6.85;;;12.40;99.90;;;;;;5056721;28;20037;-48
2022/10/01 06:26:58;;;;;;;8.18;6.15;;;12.40;99.90;;;;;;5059173;28;20091;-47
2022/10/01 06:29:25;;;;;;;8.00;6.97;;;12.40;99.90;;;;;;5054274;28;20111;-49
2022/10/01 06:31:51;;;;;;;9.20;6.90;;;12.50;99.90;;;;;;5053149;28;20060;-46
2022/10/01 06:34:18;;;;;;;8.80;6.88;;;12.50;99.90;;;;;;5052789;28;20128;-46
2022/10/01 06:36:46;;;;;;;8.88;7.03;;;12.50;99.90;;;;;;5053546;28;20436;-50
2022/10/01 06:39:13;;;;;;;9.88;7.07;;;12.60;99.90;;;;;;5051730;28;20130;-46
2022/10/01 06:41:42;;;;;;;10.07;6.95;;;12.50;99.90;;;;;;5058291;28;20167;-49
2022/10/01 06:44:09;;;;;;;9.23;7.38;;;12.60;99.90;;;;;;5052737;28;20106;-49
2022/10/01 06:46:36;;;;;;;9.82;7.00;;;12.60;99.90;;;;;;5054939;28;20057;-51
2022/10/01 06:49:04;;;;;;;8.50;7.13;;;12.60;99.90;;;;;;5062906;28;20088;-51
2022/10/01 06:54:26;;;;;;;15.10;6.95;;;12.70;99.90;;;;;;5029666;28;20064;-46
2022/10/01 06:56:52;;;;;;;12.88;7.25;;;12.70;99.90;;;;;;5054121;28;20057;-50
2022/10/01 06:59:19;;;;;;;12.18;6.85;;;12.70;99.90;;;;;;5054409;28;20049;-50
2022/10/01 07:01:49;;;;;;;11.48;7.55;;;12.80;99.90;;;;;;5052124;28;20111;-51
2022/10/01 07:04:15;;;;;;;10.10;6.80;;;12.90;99.90;;;;;;5050870;28;20056;-47
2022/10/01 07:06:42;;;;;;;11.20;7.22;;;12.90;99.90;;;;;;5051705;28;20084;-49
2022/10/01 07:09:09;;;;;;;13.13;8.02;;;12.90;99.90;;;;;;5050757;28;20084;-47
2022/10/01 07:11:40;;;;;;;13.52;6.60;;;13.00;99.90;;;;;;5053036;28;20083;-47
2022/10/01 07:14:07;;;;;;;9.70;7.10;;;13.10;99.90;;;;;;5054610;28;20551;-50
2022/10/01 07:16:33;;;;;;;15.07;6.47;;;13.10;99.90;;;;;;5039182;28;20077;-47
2022/10/01 07:19:00;;;;;;;11.52;6.43;;;13.10;99.90;;;;;;5037902;28;20127;-50
2022/10/01 07:21:27;;;;;;;12.43;7.18;;;13.10;99.90;;;;;;5053124;28;20138;-45
2022/10/01 07:23:54;;;;;;;12.60;6.07;;;13.20;99.90;;;;;;5054200;28;20081;-50
2022/10/01 07:26:21;;;;;;;14.43;6.90;;;13.20;99.90;;;;;;5054415;28;20056;-51
2022/10/01 07:28:49;;;;;;;17.67;7.85;;;13.20;99.90;;;;;;5053514;28;20076;-50
2022/10/01 07:31:15;;;;;;;11.40;6.75;;;13.20;99.90;;;;;;5053523;28;20106;-49
2022/10/01 07:33:42;;;;;;;12.95;6.72;;;13.20;99.90;;;;;;5053853;28;20113;-49
2022/10/01 07:36:11;;;;;;;12.30;6.07;;;13.30;99.90;;;;;;5054516;28;20103;-48
2022/10/01 07:38:37;;;;;;;13.18;6.18;;;13.30;99.90;;;;;;5053629;28;20092;-50
2022/10/01 07:41:05;;;;;;;15.05;6.90;;;13.30;99.90;;;;;;5052911;28;20191;-50
2022/10/01 07:43:32;;;;;;;16.65;6.40;;;13.40;99.90;;;;;;5054516;28;20095;-48
2022/10/01 07:46:01;;;;;;;13.80;5.22;;;13.50;99.90;;;;;;5054813;28;20049;-51
2022/10/01 07:48:28;;;;;;;11.02;5.18;;;13.70;99.90;;;;;;5053668;28;20059;-55
2022/10/01 07:50:56;;;;;;;13.95;6.45;;;13.70;99.90;;;;;;5050864;28;20896;-56
2022/10/01 07:53:23;;;;;;;18.65;5.68;;;13.80;99.90;;;;;;5050447;28;20049;-52
2022/10/01 07:55:50;;;;;;;15.27;5.15;;;13.80;99.90;;;;;;5034999;28;20049;-56
2022/10/01 07:58:17;;;;;;;13.73;5.90;;;13.80;99.90;;;;;;5052284;28;20088;-56
2022/10/01 08:00:44;;;;;;;12.73;5.72;;;13.80;99.90;;;;;;5049330;28;20051;-56
2022/10/01 08:03:12;;;;;;;13.70;5.72;;;13.90;99.90;;;;;;5051904;28;20045;-52
2022/10/01 08:05:41;;;;;;;10.20;5.10;;;14.00;99.90;;;;;;5052966;28;20135;-50
2022/10/01 08:08:08;;;;;;;13.45;5.65;;;14.10;99.90;;;;;;5052774;28;20497;-53
2022/10/01 08:10:35;;;;;;;12.02;4.95;;;14.30;99.90;;;;;;5053989;28;20515;-50
2022/10/01 08:13:03;;;;;;;17.45;5.30;;;14.40;99.90;;;;;;5052669;28;20085;-49
2022/10/01 08:15:30;;;;;;;17.80;5.07;;;14.60;99.90;;;;;;5053676;28;20057;-48
2022/10/01 08:17:57;;;;;;;10.45;4.05;;;14.70;99.90;;;;;;5053968;28;20087;-50
2022/10/01 08:20:25;;;;;;;11.48;3.60;;;14.80;99.90;;;;;;5054008;28;20088;-49
2022/10/01 08:22:51;;;;;;;13.70;3.50;;;14.90;99.90;;;;;;5050571;28;20091;-51
2022/10/01 08:25:18;;;;;;;15.75;4.20;;;15.00;99.90;;;;;;5052618;28;20087;-50
2022/10/01 08:27:45;;;;;;;14.13;3.30;;;15.10;99.90;;;;;;5051459;28;20481;-48
2022/10/01 08:30:12;;;;;;;14.80;3.72;;;15.20;99.90;;;;;;5052628;28;20091;-46
2022/10/01 08:32:39;;;;;;;12.73;2.85;;;15.30;99.90;;;;;;5050579;28;20041;-48
2022/10/01 08:35:06;;;;;;;14.75;2.63;;;15.50;99.90;;;;;;5052002;28;20095;-50
2022/10/01 08:37:34;;;;;;;16.58;3.10;;;15.50;99.90;;;;;;5068638;28;20551;-45
2022/10/01 08:40:01;;;;;;;11.95;2.97;;;15.60;99.90;;;;;;5051158;28;20057;-50
2022/10/01 08:42:38;;;;;;;13.23;2.70;;;15.70;99.90;;;;;;5052121;28;20409;-51
2022/10/01 08:45:06;;;;;;;16.80;2.67;;;15.80;99.90;;;;;;5052264;28;20374;-48
2022/10/01 08:47:35;;;;;;;12.73;2.55;;;16.00;99.90;;;;;;5053346;28;20453;-51
2022/10/01 08:50:05;;;;;;;15.35;2.55;;;16.10;99.90;;;;;;5050632;28;20465;-47
2022/10/01 08:52:36;;;;;;;17.25;2.47;;;16.20;99.90;;;;;;5066577;28;20055;-49
2022/10/01 08:55:05;;;;;;;11.60;2.90;;;16.20;99.90;;;;;;5051972;28;20060;-49
2022/10/01 08:57:34;;;;;;;13.93;2.70;;;16.30;99.90;;;;;;5038503;28;20064;-50
2022/10/01 09:00:03;;;;;;;19.73;4.03;;;16.20;99.90;;;;;;5045036;28;20123;-44
2022/10/01 09:02:31;;;;;;;16.70;2.38;;;16.20;99.90;;;;;;5047497;28;20044;-50
2022/10/01 09:05:00;;;;;;;15.23;2.65;;;16.10;99.90;;;;;;5048878;28;20095;-46
2022/10/01 09:07:40;;;;;;;14.00;2.60;;;16.10;99.90;;;;;;5045887;28;20056;-49
2022/10/01 09:10:17;;;;;;;12.13;2.42;;;16.10;99.90;;;;;;5048569;28;20111;-49
2022/10/01 09:12:47;;;;;;;8.75;2.25;;;16.10;99.90;;;;;;5045203;28;20053;-49
2022/10/01 09:15:20;;;;;;;13.77;2.28;;;16.00;99.90;;;;;;5045427;28;20081;-46
2022/10/01 09:18:02;;;;;;;12.18;2.35;;;16.00;99.90;;;;;;5047161;28;20057;-45
2022/10/01 09:20:31;;;;;;;8.93;1.98;;;16.10;99.90;;;;;;5050631;28;20075;-47
2022/10/01 09:23:13;;;;;;;12.98;2.63;;;16.30;99.90;;;;;;5044157;28;20077;-47
2022/10/01 09:25:40;;;;;;;11.52;1.80;;;16.40;99.90;;;;;;5049766;28;20539;-44
2022/10/01 09:28:11;;;;;;;8.43;2.10;;;16.50;99.90;;;;;;5051060;28;20057;-49
2022/10/01 09:30:38;;;;;;;6.10;1.35;;;16.70;99.90;;;;;;5049901;28;20060;-43
2022/10/01 09:33:10;;;;;;;6.93;1.42;;;16.80;99.90;;;;;;5049369;28;20611;-48
2022/10/01 09:35:40;;;;;;;9.38;2.35;;;16.80;99.90;;;;;;5049142;28;20102;-46
2022/10/01 09:38:12;;;;;;;5.85;1.40;;;16.80;99.90;;;;;;5051087;28;20049;-47
2022/10/01 09:40:41;;;;;;;8.52;1.42;;;16.90;99.90;;;;;;5045698;28;20411;-47
2022/10/01 09:43:09;;;;;;;8.68;1.30;;;17.10;99.90;;;;;;5049684;28;20053;-45
2022/10/01 09:45:37;;;;;;;8.20;1.48;;;17.20;99.90;;;;;;5045029;28;20045;-46
2022/10/01 09:48:05;;;;;;;9.00;1.75;;;17.20;99.90;;;;;;5050125;28;20118;-46
2022/10/01 09:50:34;;;;;;;7.97;1.30;;;17.10;99.90;;;;;;5052291;28;20134;-45
2022/10/01 09:53:01;;;;;;;6.68;1.20;;;17.00;99.90;;;;;;5048807;28;20122;-53
2022/10/01 09:55:31;;;;;;;6.93;1.60;;;16.90;99.90;;;;;;5056288;28;20045;-54
2022/10/01 09:57:59;;;;;;;7.57;1.30;;;16.80;99.90;;;;;;5054619;28;20080;-55
2022/10/01 10:00:27;;;;;;;8.32;1.55;;;16.60;99.90;;;;;;5042149;28;20132;-53
2022/10/01 10:02:54;;;;;;;4.63;1.20;;;16.50;99.90;;;;;;5052617;28;20110;-54
2022/10/01 10:05:22;;;;;;;7.45;1.40;;;16.30;99.90;;;;;;5052977;28;20497;-57
2022/10/01 10:07:50;;;;;;;8.40;1.50;;;16.20;99.90;;;;;;5052936;28;20045;-52
2022/10/01 10:10:19;;;;;;;6.00;1.58;;;16.10;99.90;;;;;;5051665;28;20144;-51
2022/10/01 10:12:47;;;;;;;6.90;1.55;;;16.00;99.90;;;;;;5051217;28;20042;-56
2022/10/01 10:15:16;;;;;;;6.72;1.35;;;16.10;99.90;;;;;;5042725;28;20465;-49
2022/10/01 10:17:43;;;;;;;8.75;1.88;;;16.10;99.90;;;;;;5042056;28;20049;-49
2022/10/01 10:20:12;;;;;;;10.63;1.75;;;16.20;99.90;;;;;;5048856;28;20050;-47
2022/10/01 10:22:38;;;;;;;8.68;1.58;;;16.30;99.90;;;;;;5057807;28;20493;-48
2022/10/01 10:25:13;;;;;;;5.63;1.58;;;16.50;99.90;;;;;;5054741;28;20068;-49
2022/10/01 10:27:53;;;;;;;9.80;2.05;;;16.50;99.90;;;;;;5055144;28;20060;-50
2022/10/01 10:30:20;;;;;;;7.95;1.30;;;16.50;99.90;;;;;;5052965;28;20404;-48
2022/10/01 10:32:47;;;;;;;8.00;1.60;;;16.50;99.90;;;;;;5049845;28;20088;-50
2022/10/01 10:35:17;;;;;;;5.88;1.45;;;16.50;99.90;;;;;;5055181;28;20115;-50
2022/10/01 10:37:45;;;;;;;9.32;1.30;;;16.40;99.90;;;;;;5055643;28;20570;-51
2022/10/01 10:40:16;;;;;;;10.18;1.52;;;16.30;99.90;;;;;;5053765;28;20053;-45
2022/10/01 10:42:47;;;;;;;10.60;1.70;;;16.20;99.90;;;;;;5034973;28;20576;-49
2022/10/01 10:45:18;;;;;;;9.45;1.85;;;16.10;99.90;;;;;;5034531;28;20320;-62
2022/10/01 10:47:46;;;;;;;;;;;16.00;99.90;;;;;;5039577;28;20052;-51
2022/10/01 10:50:20;;;;;;;5.43;0.98;;;15.90;99.90;;;;;;5054520;28;20011;-58
2022/10/01 10:52:47;;;;;;;4.85;1.33;;;15.60;99.90;;;;;;5043763;28;20080;-57
2022/10/01 10:55:21;;;;;;;8.20;1.17;;;15.40;99.90;;;;;;5054371;28;20118;-56
2022/10/01 10:57:48;;;;;;;7.90;1.58;;;15.30;99.90;;;;;;5051546;28;20053;-58
2022/10/01 11:00:17;;;;;;;4.95;1.10;;;15.00;99.90;;;;;;5053977;28;20134;-58
2022/10/01 11:02:49;;;;;;;4.53;0.82;;;14.90;99.90;;;;;;5050989;28;20076;-57
2022/10/01 11:05:18;;;;;;;5.50;0.73;;;14.80;99.90;;;;;;5053730;28;20077;-53
2022/10/01 11:07:45;;;;;;;6.05;1.30;;;14.80;99.90;;;;;;5054064;28;20059;-55
2022/10/01 11:10:20;;;;;;;7.30;1.45;;;14.80;99.90;;;;;;5053933;28;20400;-51
2022/10/01 11:13:06;;;;;;;7.75;1.30;;;14.90;99.90;;;;;;5043246;28;20072;-52
2022/10/01 11:15:46;;;;;;;7.47;1.40;;;14.90;99.90;;;;;;5052181;28;20076;-58
2022/10/01 11:18:29;;;;;;;9.52;1.80;;;14.90;99.90;;;;;;5055484;28;20507;-59
2022/10/01 11:21:16;;;;;;;4.70;1.40;;;14.90;99.90;;;;;;5055439;28;20145;-55
2022/10/01 11:24:10;;;;;;;9.95;1.67;;;14.80;99.90;;;;;;5053657;28;20564;-59
2022/10/01 11:26:40;;;;;;;11.55;1.70;;;14.80;99.90;;;;;;5040117;28;20056;-57
2022/10/01 11:29:14;;;;;;;6.63;1.42;;;14.80;99.90;;;;;;5054874;28;20080;-53
2022/10/01 11:31:46;;;;;;;9.73;2.05;;;14.90;99.90;;;;;;5052411;28;20091;-49
2022/10/01 11:34:17;;;;;;;;;;;14.90;99.90;;;;;;5053974;28;20401;-52
2022/10/01 11:36:47;;;;;;;7.80;1.58;;;15.00;99.90;;;;;;5053610;28;19975;-51
2022/10/01 11:39:15;;;;;;;8.90;1.75;;;15.20;99.90;;;;;;5054117;28;20140;-51
2022/10/01 11:41:43;;;;;;;11.60;1.60;;;15.30;99.90;;;;;;5053182;28;20404;-47
2022/10/01 11:44:14;;;;;;;7.80;1.70;;;15.50;99.90;;;;;;5051500;28;20042;-52
2022/10/01 11:46:48;;;;;;;8.05;1.63;;;15.80;99.90;;;;;;5054662;28;20132;-51
2022/10/01 11:49:21;;;;;;;12.10;1.88;;;16.00;99.90;;;;;;5054398;28;20102;-53
2022/10/01 11:51:50;;;;;;;14.77;1.92;;;16.10;99.90;;;;;;5053339;28;20533;-51
2022/10/01 11:54:19;;;;;;;10.23;1.98;;;16.30;99.90;;;;;;5051916;28;20072;-52
2022/10/01 11:59:35;;;;;;;9.48;1.98;;;16.50;99.90;;;;;;5068981;28;20045;-51
2022/10/01 12:02:09;;;;;;;14.52;2.00;;;16.70;99.90;;;;;;5049074;28;20393;-51
2022/10/01 12:04:38;;;;;;;7.78;1.60;;;16.80;99.90;;;;;;5044164;28;20045;-52
2022/10/01 12:07:09;;;;;;;12.38;2.05;;;16.90;99.90;;;;;;5053117;28;20073;-50
2022/10/01 12:09:39;;;;;;;13.20;2.47;;;17.00;99.90;;;;;;5049566;28;20073;-50
2022/10/01 12:12:07;;;;;;;13.07;2.05;;;17.10;99.90;;;;;;5048370;28;20092;-47
2022/10/01 12:14:37;;;;;;;18.55;3.05;;;17.20;99.90;;;;;;5052518;28;20559;-49
2022/10/01 12:17:12;;;;;;;21.58;2.65;;;17.10;99.90;;;;;;5052668;28;20692;-50
2022/10/01 12:19:41;;;;;;;12.00;2.20;;;17.00;99.90;;;;;;5039352;28;20051;-51
2022/10/01 12:22:11;;;;;;;14.55;2.38;;;16.80;99.90;;;;;;5051774;28;20084;-54
2022/10/01 12:24:40;;;;;;;15.13;2.55;;;16.70;99.90;;;;;;5052838;28;20087;-51
2022/10/01 12:27:26;;;;;;;13.10;2.00;;;16.60;99.90;;;;;;5052055;28;20048;-53
2022/10/01 12:29:56;;;;;;;13.02;2.53;;;16.50;99.90;;;;;;5050497;28;20136;-51
2022/10/01 12:32:29;;;;;;;17.38;2.92;;;16.30;99.90;;;;;;5049081;28;20750;-51
2022/10/01 12:35:01;;;;;;;13.80;2.60;;;16.20;99.90;;;;;;5052190;28;20049;-50
2022/10/01 12:37:34;;;;;;;14.40;2.25;;;16.20;99.90;;;;;;5051235;28;20049;-45
2022/10/01 12:40:09;;;;;;;12.68;2.40;;;16.10;99.90;;;;;;5050888;28;20501;-47
2022/10/01 12:43:01;;;;;;;13.57;2.53;;;16.10;99.90;;;;;;5050583;28;20053;-47
2022/10/01 12:45:32;;;;;;;13.90;2.70;;;16.10;99.90;;;;;;5052936;28;20049;-48
2022/10/01 12:48:05;;;;;;;12.15;2.50;;;16.10;99.90;;;;;;5045836;28;20080;-48
2022/10/01 12:50:38;;;;;;;14.90;2.83;;;16.10;99.90;;;;;;5052052;28;20044;-50
2022/10/01 12:53:24;;;;;;;12.05;2.30;;;16.10;99.90;;;;;;5049117;28;20053;-48
2022/10/01 12:56:05;;;;;;;14.38;2.30;;;16.00;99.90;;;;;;5052519;28;20091;-50